sensor_id;sensor_type;location;lat;lon;timestamp;P1;durP1;ratioP1;P2;durP2;ratioP2
71298;SDS011;59083;47.974;21.722;2023-04-01T00:00:26;9.55;;;4.43;;
71298;SDS011;59083;47.974;21.722;2023-04-01T00:03:28;10.48;;;4.60;;
71298;SDS011;59083;47.974;21.722;2023-04-01T00:06:29;12.55;;;5.10;;
71298;SDS011;59083;47.974;21.722;2023-04-01T00:09:31;10.73;;;4.62;;
71298;SDS011;59083;47.974;21.722;2023-04-01T00:12:32;14.37;;;4.80;;
71298;SDS011;59083;47.974;21.722;2023-04-01T00:15:34;11.55;;;4.97;;
71298;SDS011;59083;47.974;21.722;2023-04-01T00:18:36;10.52;;;4.97;;
71298;SDS011;59083;47.974;21.722;2023-04-01T00:21:37;12.43;;;5.05;;
71298;SDS011;59083;47.974;21.722;2023-04-01T00:24:38;13.20;;;5.32;;
71298;SDS011;59083;47.974;21.722;2023-04-01T00:27:40;12.03;;;5.03;;
71298;SDS011;59083;47.974;21.722;2023-04-01T00:30:41;11.05;;;5.47;;
71298;SDS011;59083;47.974;21.722;2023-04-01T00:33:43;12.80;;;5.15;;
71298;SDS011;59083;47.974;21.722;2023-04-01T00:36:44;10.25;;;5.40;;
71298;SDS011;59083;47.974;21.722;2023-04-01T00:39:45;12.75;;;6.15;;
71298;SDS011;59083;47.974;21.722;2023-04-01T00:42:46;14.23;;;5.93;;
71298;SDS011;59083;47.974;21.722;2023-04-01T00:45:48;16.50;;;5.65;;
71298;SDS011;59083;47.974;21.722;2023-04-01T00:48:51;13.35;;;6.12;;
71298;SDS011;59083;47.974;21.722;2023-04-01T00:51:55;11.52;;;5.65;;
71298;SDS011;59083;47.974;21.722;2023-04-01T00:55:00;14.63;;;6.10;;
71298;SDS011;59083;47.974;21.722;2023-04-01T00:58:05;13.67;;;5.90;;
71298;SDS011;59083;47.974;21.722;2023-04-01T01:01:10;12.00;;;5.47;;
71298;SDS011;59083;47.974;21.722;2023-04-01T01:04:30;14.55;;;5.95;;
71298;SDS011;59083;47.974;21.722;2023-04-01T01:11:13;12.70;;;5.57;;
71298;SDS011;59083;47.974;21.722;2023-04-01T01:27:17;12.15;;;5.55;;
71298;SDS011;59083;47.974;21.722;2023-04-01T01:30:25;10.67;;;5.37;;
71298;SDS011;59083;47.974;21.722;2023-04-01T01:36:45;10.40;;;4.60;;
71298;SDS011;59083;47.974;21.722;2023-04-01T01:40:02;9.68;;;4.70;;
71298;SDS011;59083;47.974;21.722;2023-04-01T01:43:07;11.77;;;5.15;;
71298;SDS011;59083;47.974;21.722;2023-04-01T01:46:12;13.13;;;5.50;;
71298;SDS011;59083;47.974;21.722;2023-04-01T01:49:17;10.35;;;5.70;;
71298;SDS011;59083;47.974;21.722;2023-04-01T01:52:21;14.40;;;5.25;;
71298;SDS011;59083;47.974;21.722;2023-04-01T01:55:36;9.25;;;4.87;;
71298;SDS011;59083;47.974;21.722;2023-04-01T01:58:43;8.70;;;4.00;;
71298;SDS011;59083;47.974;21.722;2023-04-01T02:01:49;9.37;;;4.27;;
71298;SDS011;59083;47.974;21.722;2023-04-01T02:04:52;9.27;;;4.50;;
71298;SDS011;59083;47.974;21.722;2023-04-01T02:07:57;9.00;;;4.22;;
71298;SDS011;59083;47.974;21.722;2023-04-01T02:11:26;11.15;;;4.47;;
71298;SDS011;59083;47.974;21.722;2023-04-01T02:14:35;8.77;;;4.62;;
71298;SDS011;59083;47.974;21.722;2023-04-01T02:17:43;9.60;;;4.50;;
71298;SDS011;59083;47.974;21.722;2023-04-01T02:20:47;9.40;;;4.45;;
71298;SDS011;59083;47.974;21.722;2023-04-01T02:23:50;9.13;;;4.30;;
71298;SDS011;59083;47.974;21.722;2023-04-01T02:26:54;9.20;;;4.53;;
71298;SDS011;59083;47.974;21.722;2023-04-01T02:29:55;10.25;;;4.50;;
71298;SDS011;59083;47.974;21.722;2023-04-01T02:32:58;8.77;;;4.63;;
71298;SDS011;59083;47.974;21.722;2023-04-01T02:35:59;10.77;;;4.35;;
71298;SDS011;59083;47.974;21.722;2023-04-01T02:39:01;10.98;;;4.30;;
71298;SDS011;59083;47.974;21.722;2023-04-01T02:42:04;9.65;;;4.68;;
71298;SDS011;59083;47.974;21.722;2023-04-01T02:45:06;10.70;;;4.72;;
71298;SDS011;59083;47.974;21.722;2023-04-01T02:48:08;11.83;;;4.80;;
71298;SDS011;59083;47.974;21.722;2023-04-01T02:51:10;9.60;;;4.22;;
71298;SDS011;59083;47.974;21.722;2023-04-01T02:54:11;7.22;;;4.50;;
71298;SDS011;59083;47.974;21.722;2023-04-01T02:57:12;9.05;;;4.78;;
71298;SDS011;59083;47.974;21.722;2023-04-01T03:00:14;9.82;;;4.78;;
71298;SDS011;59083;47.974;21.722;2023-04-01T03:03:16;10.30;;;5.07;;
71298;SDS011;59083;47.974;21.722;2023-04-01T03:06:17;9.65;;;5.12;;
71298;SDS011;59083;47.974;21.722;2023-04-01T03:09:19;9.98;;;5.37;;
71298;SDS011;59083;47.974;21.722;2023-04-01T03:12:20;10.02;;;4.85;;
71298;SDS011;59083;47.974;21.722;2023-04-01T03:15:23;10.48;;;5.22;;
71298;SDS011;59083;47.974;21.722;2023-04-01T03:18:24;11.07;;;4.47;;
71298;SDS011;59083;47.974;21.722;2023-04-01T03:21:26;8.82;;;4.65;;
71298;SDS011;59083;47.974;21.722;2023-04-01T03:24:27;10.55;;;5.00;;
71298;SDS011;59083;47.974;21.722;2023-04-01T03:27:29;10.52;;;4.60;;
71298;SDS011;59083;47.974;21.722;2023-04-01T03:30:30;8.13;;;4.22;;
71298;SDS011;59083;47.974;21.722;2023-04-01T03:33:32;7.83;;;3.97;;
71298;SDS011;59083;47.974;21.722;2023-04-01T03:36:33;9.18;;;4.20;;
71298;SDS011;59083;47.974;21.722;2023-04-01T03:39:34;8.40;;;3.65;;
71298;SDS011;59083;47.974;21.722;2023-04-01T03:42:36;12.13;;;4.07;;
71298;SDS011;59083;47.974;21.722;2023-04-01T03:45:44;7.45;;;3.62;;
71298;SDS011;59083;47.974;21.722;2023-04-01T03:48:47;7.63;;;3.50;;
71298;SDS011;59083;47.974;21.722;2023-04-01T03:51:48;6.82;;;3.80;;
71298;SDS011;59083;47.974;21.722;2023-04-01T03:54:50;7.97;;;3.90;;
71298;SDS011;59083;47.974;21.722;2023-04-01T03:57:51;8.88;;;3.78;;
71298;SDS011;59083;47.974;21.722;2023-04-01T04:00:52;9.60;;;4.10;;
71298;SDS011;59083;47.974;21.722;2023-04-01T04:03:54;11.33;;;4.20;;
71298;SDS011;59083;47.974;21.722;2023-04-01T04:06:56;8.32;;;4.00;;
71298;SDS011;59083;47.974;21.722;2023-04-01T04:09:57;8.93;;;4.20;;
71298;SDS011;59083;47.974;21.722;2023-04-01T04:12:59;7.75;;;3.90;;
71298;SDS011;59083;47.974;21.722;2023-04-01T04:16:02;8.85;;;3.53;;
71298;SDS011;59083;47.974;21.722;2023-04-01T04:19:04;7.27;;;3.60;;
71298;SDS011;59083;47.974;21.722;2023-04-01T04:22:06;7.37;;;3.50;;
71298;SDS011;59083;47.974;21.722;2023-04-01T04:25:07;10.75;;;4.03;;
71298;SDS011;59083;47.974;21.722;2023-04-01T04:28:09;11.25;;;3.95;;
71298;SDS011;59083;47.974;21.722;2023-04-01T04:31:10;7.32;;;3.47;;
71298;SDS011;59083;47.974;21.722;2023-04-01T04:34:15;7.73;;;3.60;;
71298;SDS011;59083;47.974;21.722;2023-04-01T04:37:16;9.82;;;3.78;;
71298;SDS011;59083;47.974;21.722;2023-04-01T04:40:18;8.02;;;3.70;;
71298;SDS011;59083;47.974;21.722;2023-04-01T04:43:19;8.43;;;3.37;;
71298;SDS011;59083;47.974;21.722;2023-04-01T04:46:21;7.82;;;4.00;;
71298;SDS011;59083;47.974;21.722;2023-04-01T04:49:23;7.83;;;3.37;;
71298;SDS011;59083;47.974;21.722;2023-04-01T04:52:25;10.23;;;3.95;;
71298;SDS011;59083;47.974;21.722;2023-04-01T04:55:26;8.35;;;4.10;;
71298;SDS011;59083;47.974;21.722;2023-04-01T04:58:30;8.68;;;4.00;;
71298;SDS011;59083;47.974;21.722;2023-04-01T05:01:31;8.82;;;4.45;;
71298;SDS011;59083;47.974;21.722;2023-04-01T05:04:35;9.17;;;4.17;;
71298;SDS011;59083;47.974;21.722;2023-04-01T05:07:37;9.27;;;4.70;;
71298;SDS011;59083;47.974;21.722;2023-04-01T05:10:39;11.10;;;4.20;;
71298;SDS011;59083;47.974;21.722;2023-04-01T05:13:40;9.48;;;4.60;;
71298;SDS011;59083;47.974;21.722;2023-04-01T05:16:42;9.48;;;4.10;;
71298;SDS011;59083;47.974;21.722;2023-04-01T05:19:44;8.83;;;4.33;;
71298;SDS011;59083;47.974;21.722;2023-04-01T05:22:45;8.75;;;3.90;;
71298;SDS011;59083;47.974;21.722;2023-04-01T05:25:47;8.68;;;4.03;;
71298;SDS011;59083;47.974;21.722;2023-04-01T05:28:49;7.72;;;3.53;;
71298;SDS011;59083;47.974;21.722;2023-04-01T05:31:50;8.07;;;3.60;;
71298;SDS011;59083;47.974;21.722;2023-04-01T05:34:52;7.13;;;3.60;;
71298;SDS011;59083;47.974;21.722;2023-04-01T05:37:53;6.78;;;3.12;;
71298;SDS011;59083;47.974;21.722;2023-04-01T05:40:58;7.53;;;3.15;;
71298;SDS011;59083;47.974;21.722;2023-04-01T05:44:00;7.37;;;2.95;;
71298;SDS011;59083;47.974;21.722;2023-04-01T05:47:03;6.70;;;2.80;;
71298;SDS011;59083;47.974;21.722;2023-04-01T05:50:05;6.93;;;2.80;;
71298;SDS011;59083;47.974;21.722;2023-04-01T05:53:07;8.20;;;2.97;;
71298;SDS011;59083;47.974;21.722;2023-04-01T05:56:08;7.93;;;3.55;;
71298;SDS011;59083;47.974;21.722;2023-04-01T05:59:11;6.68;;;3.03;;
71298;SDS011;59083;47.974;21.722;2023-04-01T06:02:15;6.62;;;3.08;;
71298;SDS011;59083;47.974;21.722;2023-04-01T06:05:20;6.97;;;3.33;;
71298;SDS011;59083;47.974;21.722;2023-04-01T06:08:23;7.18;;;2.75;;
71298;SDS011;59083;47.974;21.722;2023-04-01T06:11:33;7.75;;;2.87;;
71298;SDS011;59083;47.974;21.722;2023-04-01T06:31:44;8.23;;;3.20;;
71298;SDS011;59083;47.974;21.722;2023-04-01T06:35:01;6.78;;;2.87;;
71298;SDS011;59083;47.974;21.722;2023-04-01T06:38:17;6.83;;;3.30;;
71298;SDS011;59083;47.974;21.722;2023-04-01T06:55:21;6.87;;;3.07;;
71298;SDS011;59083;47.974;21.722;2023-04-01T06:58:29;7.97;;;3.10;;
71298;SDS011;59083;47.974;21.722;2023-04-01T07:01:38;6.80;;;3.25;;
71298;SDS011;59083;47.974;21.722;2023-04-01T07:04:44;6.65;;;3.20;;
71298;SDS011;59083;47.974;21.722;2023-04-01T07:07:50;8.38;;;4.25;;
71298;SDS011;59083;47.974;21.722;2023-04-01T07:10:58;8.53;;;3.30;;
71298;SDS011;59083;47.974;21.722;2023-04-01T07:14:10;9.30;;;3.75;;
71298;SDS011;59083;47.974;21.722;2023-04-01T07:17:21;7.35;;;3.47;;
71298;SDS011;59083;47.974;21.722;2023-04-01T07:20:28;8.23;;;3.58;;
71298;SDS011;59083;47.974;21.722;2023-04-01T07:23:36;7.28;;;3.28;;
71298;SDS011;59083;47.974;21.722;2023-04-01T07:26:42;7.53;;;3.27;;
71298;SDS011;59083;47.974;21.722;2023-04-01T07:29:44;7.47;;;3.33;;
71298;SDS011;59083;47.974;21.722;2023-04-01T07:32:56;8.82;;;3.60;;
71298;SDS011;59083;47.974;21.722;2023-04-01T07:36:39;7.05;;;3.42;;
71298;SDS011;59083;47.974;21.722;2023-04-01T07:39:51;8.45;;;3.92;;
71298;SDS011;59083;47.974;21.722;2023-04-01T07:51:03;7.28;;;3.42;;
71298;SDS011;59083;47.974;21.722;2023-04-01T07:54:10;8.85;;;3.30;;
71298;SDS011;59083;47.974;21.722;2023-04-01T07:57:20;7.87;;;3.62;;
71298;SDS011;59083;47.974;21.722;2023-04-01T08:07:25;7.10;;;3.10;;
71298;SDS011;59083;47.974;21.722;2023-04-01T08:10:52;6.80;;;3.12;;
71298;SDS011;59083;47.974;21.722;2023-04-01T08:17:28;8.23;;;3.70;;
71298;SDS011;59083;47.974;21.722;2023-04-01T08:20:44;7.15;;;3.50;;
71298;SDS011;59083;47.974;21.722;2023-04-01T08:23:51;9.80;;;4.80;;
71298;SDS011;59083;47.974;21.722;2023-04-01T08:26:55;8.45;;;3.67;;
71298;SDS011;59083;47.974;21.722;2023-04-01T08:30:03;5.72;;;2.97;;
71298;SDS011;59083;47.974;21.722;2023-04-01T08:33:17;8.93;;;3.87;;
71298;SDS011;59083;47.974;21.722;2023-04-01T08:36:46;6.82;;;3.35;;
71298;SDS011;59083;47.974;21.722;2023-04-01T08:49:51;7.47;;;3.10;;
71298;SDS011;59083;47.974;21.722;2023-04-01T09:06:32;6.70;;;2.90;;
71298;SDS011;59083;47.974;21.722;2023-04-01T09:09:47;7.15;;;3.20;;
71298;SDS011;59083;47.974;21.722;2023-04-01T09:16:40;7.95;;;3.10;;
71298;SDS011;59083;47.974;21.722;2023-04-01T09:46:46;6.40;;;3.12;;
71298;SDS011;59083;47.974;21.722;2023-04-01T10:00:46;7.05;;;2.97;;
71298;SDS011;59083;47.974;21.722;2023-04-01T10:04:15;7.62;;;3.62;;
71298;SDS011;59083;47.974;21.722;2023-04-01T10:11:50;6.97;;;3.42;;
71298;SDS011;59083;47.974;21.722;2023-04-01T10:22:15;7.53;;;3.35;;
71298;SDS011;59083;47.974;21.722;2023-04-01T10:49:54;5.63;;;2.87;;
71298;SDS011;59083;47.974;21.722;2023-04-01T10:56:38;8.73;;;3.30;;
71298;SDS011;59083;47.974;21.722;2023-04-01T11:14:03;7.28;;;2.75;;
71298;SDS011;59083;47.974;21.722;2023-04-01T12:26:05;8.52;;;3.17;;
71298;SDS011;59083;47.974;21.722;2023-04-01T12:29:24;5.97;;;2.87;;
71298;SDS011;59083;47.974;21.722;2023-04-01T12:36:18;9.07;;;3.62;;
71298;SDS011;59083;47.974;21.722;2023-04-01T12:46:03;8.50;;;3.25;;
71298;SDS011;59083;47.974;21.722;2023-04-01T12:56:00;6.10;;;3.08;;
71298;SDS011;59083;47.974;21.722;2023-04-01T13:05:58;6.70;;;3.20;;
71298;SDS011;59083;47.974;21.722;2023-04-01T13:16:14;7.10;;;3.40;;
71298;SDS011;59083;47.974;21.722;2023-04-01T13:19:34;7.20;;;3.30;;
71298;SDS011;59083;47.974;21.722;2023-04-01T13:29:22;7.15;;;3.45;;
71298;SDS011;59083;47.974;21.722;2023-04-01T14:20:14;6.87;;;2.92;;
71298;SDS011;59083;47.974;21.722;2023-04-01T14:50:12;9.27;;;3.37;;
71298;SDS011;59083;47.974;21.722;2023-04-01T14:53:27;7.07;;;2.97;;
71298;SDS011;59083;47.974;21.722;2023-04-01T14:56:51;6.70;;;3.35;;
71298;SDS011;59083;47.974;21.722;2023-04-01T15:00:13;9.38;;;3.95;;
71298;SDS011;59083;47.974;21.722;2023-04-01T15:23:20;6.85;;;3.35;;
71298;SDS011;59083;47.974;21.722;2023-04-01T15:27:02;9.82;;;4.78;;
71298;SDS011;59083;47.974;21.722;2023-04-01T15:43:34;6.85;;;3.00;;
71298;SDS011;59083;47.974;21.722;2023-04-01T15:46:46;6.43;;;2.87;;
71298;SDS011;59083;47.974;21.722;2023-04-01T15:53:30;10.20;;;3.20;;
71298;SDS011;59083;47.974;21.722;2023-04-01T16:00:11;7.55;;;3.33;;
71298;SDS011;59083;47.974;21.722;2023-04-01T16:03:39;9.80;;;4.87;;
71298;SDS011;59083;47.974;21.722;2023-04-01T16:26:27;8.37;;;3.83;;
71298;SDS011;59083;47.974;21.722;2023-04-01T16:33:25;7.37;;;3.30;;
71298;SDS011;59083;47.974;21.722;2023-04-01T16:43:23;9.53;;;3.43;;
71298;SDS011;59083;47.974;21.722;2023-04-01T16:46:32;6.12;;;3.03;;
71298;SDS011;59083;47.974;21.722;2023-04-01T16:49:40;7.55;;;3.30;;
71298;SDS011;59083;47.974;21.722;2023-04-01T16:56:22;8.27;;;3.70;;
71298;SDS011;59083;47.974;21.722;2023-04-01T16:59:35;9.57;;;3.97;;
71298;SDS011;59083;47.974;21.722;2023-04-01T17:02:38;8.98;;;3.95;;
71298;SDS011;59083;47.974;21.722;2023-04-01T17:05:49;9.40;;;4.90;;
71298;SDS011;59083;47.974;21.722;2023-04-01T17:09:23;10.98;;;5.57;;
71298;SDS011;59083;47.974;21.722;2023-04-01T17:16:07;8.07;;;4.50;;
71298;SDS011;59083;47.974;21.722;2023-04-01T17:26:23;9.80;;;5.10;;
71298;SDS011;59083;47.974;21.722;2023-04-01T17:29:41;9.35;;;4.72;;
71298;SDS011;59083;47.974;21.722;2023-04-01T17:43:35;10.32;;;6.18;;
71298;SDS011;59083;47.974;21.722;2023-04-01T18:07:34;17.77;;;9.57;;
71298;SDS011;59083;47.974;21.722;2023-04-01T18:21:55;17.55;;;8.25;;
71298;SDS011;59083;47.974;21.722;2023-04-01T18:25:05;14.63;;;7.70;;
71298;SDS011;59083;47.974;21.722;2023-04-01T18:31:37;13.25;;;7.00;;
71298;SDS011;59083;47.974;21.722;2023-04-01T18:38:35;11.90;;;7.00;;
71298;SDS011;59083;47.974;21.722;2023-04-01T18:41:49;14.97;;;7.50;;
71298;SDS011;59083;47.974;21.722;2023-04-01T18:44:59;15.38;;;7.22;;
71298;SDS011;59083;47.974;21.722;2023-04-01T18:48:26;13.98;;;7.68;;
71298;SDS011;59083;47.974;21.722;2023-04-01T18:54:32;17.75;;;8.48;;
71298;SDS011;59083;47.974;21.722;2023-04-01T18:57:49;17.53;;;8.87;;
71298;SDS011;59083;47.974;21.722;2023-04-01T19:04:30;19.62;;;9.10;;
71298;SDS011;59083;47.974;21.722;2023-04-01T19:10:54;21.30;;;11.07;;
71298;SDS011;59083;47.974;21.722;2023-04-01T19:21:44;21.40;;;12.00;;
71298;SDS011;59083;47.974;21.722;2023-04-01T19:28:44;19.87;;;11.52;;
71298;SDS011;59083;47.974;21.722;2023-04-01T19:35:15;19.62;;;11.70;;
71298;SDS011;59083;47.974;21.722;2023-04-01T19:52:04;25.70;;;15.48;;
71298;SDS011;59083;47.974;21.722;2023-04-01T20:08:37;27.25;;;15.48;;
71298;SDS011;59083;47.974;21.722;2023-04-01T20:14:54;27.45;;;15.65;;
71298;SDS011;59083;47.974;21.722;2023-04-01T20:21:45;30.20;;;16.67;;
71298;SDS011;59083;47.974;21.722;2023-04-01T20:24:48;30.60;;;17.00;;
71298;SDS011;59083;47.974;21.722;2023-04-01T20:27:51;27.20;;;15.43;;
71298;SDS011;59083;47.974;21.722;2023-04-01T20:31:09;27.40;;;15.45;;
71298;SDS011;59083;47.974;21.722;2023-04-01T20:51:16;24.25;;;14.77;;
71298;SDS011;59083;47.974;21.722;2023-04-01T20:58:17;23.10;;;13.50;;
71298;SDS011;59083;47.974;21.722;2023-04-01T21:08:56;25.60;;;14.13;;
71298;SDS011;59083;47.974;21.722;2023-04-01T21:12:16;26.53;;;13.87;;
71298;SDS011;59083;47.974;21.722;2023-04-01T21:29:31;17.87;;;9.93;;
71298;SDS011;59083;47.974;21.722;2023-04-01T21:46:50;20.43;;;10.27;;
71298;SDS011;59083;47.974;21.722;2023-04-01T22:06:45;31.40;;;17.92;;
71298;SDS011;59083;47.974;21.722;2023-04-01T22:13:03;41.00;;;21.35;;
71298;SDS011;59083;47.974;21.722;2023-04-01T22:16:27;35.13;;;19.80;;
71298;SDS011;59083;47.974;21.722;2023-04-01T22:29:46;41.17;;;24.27;;
71298;SDS011;59083;47.974;21.722;2023-04-01T22:32:50;40.10;;;22.45;;
71298;SDS011;59083;47.974;21.722;2023-04-01T22:39:28;33.55;;;19.42;;
71298;SDS011;59083;47.974;21.722;2023-04-01T22:42:46;32.53;;;19.02;;
71298;SDS011;59083;47.974;21.722;2023-04-01T22:49:27;35.37;;;21.20;;
71298;SDS011;59083;47.974;21.722;2023-04-01T22:52:38;34.70;;;20.13;;
71298;SDS011;59083;47.974;21.722;2023-04-01T22:55:43;36.38;;;21.20;;
71298;SDS011;59083;47.974;21.722;2023-04-01T22:59:00;42.38;;;23.95;;
71298;SDS011;59083;47.974;21.722;2023-04-01T23:02:11;43.75;;;25.12;;
71298;SDS011;59083;47.974;21.722;2023-04-01T23:05:18;45.63;;;26.60;;
71298;SDS011;59083;47.974;21.722;2023-04-01T23:12:05;28.85;;;16.87;;
71298;SDS011;59083;47.974;21.722;2023-04-01T23:15:11;24.00;;;14.43;;
71298;SDS011;59083;47.974;21.722;2023-04-01T23:18:18;23.02;;;12.93;;
71298;SDS011;59083;47.974;21.722;2023-04-01T23:24:41;23.83;;;13.37;;
71298;SDS011;59083;47.974;21.722;2023-04-01T23:31:26;19.73;;;11.25;;
71298;SDS011;59083;47.974;21.722;2023-04-01T23:34:31;19.73;;;11.25;;
71298;SDS011;59083;47.974;21.722;2023-04-01T23:37:34;19.33;;;10.38;;
71298;SDS011;59083;47.974;21.722;2023-04-01T23:40:36;18.40;;;10.60;;
71298;SDS011;59083;47.974;21.722;2023-04-01T23:43:37;20.42;;;10.50;;
71298;SDS011;59083;47.974;21.722;2023-04-01T23:46:42;18.17;;;10.70;;
71298;SDS011;59083;47.974;21.722;2023-04-01T23:49:51;20.83;;;11.18;;
71298;SDS011;59083;47.974;21.722;2023-04-01T23:53:02;19.55;;;10.80;;
71298;SDS011;59083;47.974;21.722;2023-04-01T23:56:10;17.43;;;10.70;;
71298;SDS011;59083;47.974;21.722;2023-04-01T23:59:31;16.65;;;10.15;;
